• Join FlightAware (Why Join?)
  • Login
  • US Flag 
02:55AM EDT


 

Airport Tracker/Info


-or-


 

Live Flight TrackerFlight Track Log ✈ N137TK ✈ 21-Oct-2013 ✈ KNEW - KAPF

Flight Track Log - Related Links

Times and Time Zones

All times are in EDT time to prevent confusion due to time zone crossing. See the N137TK flight status page for this flight to view local times or setup timezone preferences in your user account.

Time Position Orientation Groundspeed Altitude Reporting Facility
EDT Latitude Longitude Course Direction KTS MPH feet Rate Location/Type
10:04AM 30.0547 -90.0297 22° Northeast 118 136 400  Level Houston Center
10:05AM 30.0939 -90.0114 22° Northeast 170 196 2,200 1,440 Climbing Houston Center
10:06AM 30.0947 -89.9958 86° East 165 190 2,600 1,860 Climbing Houston Center
10:06AM 30.0717 -89.9714 137° Southeast 170 196 4,100 1,800 Climbing Houston Center
10:07AM 30.0589 -89.9697 174° South 168 193 4,500 1,920 Climbing Houston Center
10:08AM 30.0031 -89.9556 168° South 172 198 6,900 1,980 Climbing Houston Center
10:09AM 29.9564 -89.9425 166° South 172 198 8,600 1,560 Climbing Houston Center
10:10AM 29.9083 -89.9272 165° South 176 203 10,200 1,500 Climbing Houston Center
10:11AM 29.8597 -89.9144 167° South 180 207 11,800 1,500 Climbing Houston Center
10:12AM 29.8094 -89.9100 176° South 181 208 13,300 1,380 Climbing Houston Center
10:13AM 29.7583 -89.9044 175° South 182 209 14,700 1,260 Climbing Houston Center
10:14AM 29.7058 -89.8975 173° South 189 217 16,000 1,320 Climbing Houston Center
10:15AM 29.6467 -89.8703 158° South 196 226 17,500 1,200 Climbing Houston Center
10:16AM 29.6100 -89.8178 129° Southeast 210 242 18,600 1,080 Climbing Houston Center
10:17AM 29.5742 -89.7650 128° Southeast 211 243 19,800 1,140 Climbing Houston Center
10:18AM 29.5403 -89.7153 128° Southeast 202 232 21,000 1,020 Climbing Houston Center
10:19AM 29.5061 -89.6642 128° Southeast 203 234 22,000 960 Climbing Houston Center
10:20AM 29.4622 -89.5997 128° Southeast 212 244 23,100 960 Climbing Houston Center
10:21AM 29.4253 -89.5442 127° Southeast 221 254 24,000 840 Climbing Houston Center
10:22AM 29.3889 -89.4889 127° Southeast 219 252 24,900 780 Climbing Houston Center
10:23AM 29.3525 -89.4369 129° Southeast 212 244 25,700 720 Climbing Houston Center
10:24AM 29.3172 -89.3856 128° Southeast 207 238 26,400 600 Climbing Houston Center
10:25AM 29.2800 -89.3331 129° Southeast 210 242 27,000 240 Climbing Houston Center
10:26AM 29.2319 -89.2622 128° Southeast 229 264 27,000  Level Houston Center
10:27AM 29.1872 -89.1936 127° Southeast 261 300 27,000  Level Houston Center
10:28AM 29.1397 -89.1247 128° Southeast 276 318 27,000  Level Houston Center
10:29AM 29.0917 -89.0539 128° Southeast 281 323 27,000  Level Houston Center
10:30AM 29.0444 -88.9850 128° Southeast 279 321 27,000  Level Houston Center
10:31AM 28.9864 -88.9011 128° Southeast 281 323 27,000  Level Houston Center
10:33AM 28.9383 -88.8308 128° Southeast 280 322 27,000  Level Houston Center
10:34AM 28.8897 -88.7617 129° Southeast 281 323 27,000  Level Houston Center
10:35AM 28.8414 -88.6922 128° Southeast 281 323 27,000  Level Houston Center
10:36AM 28.7944 -88.6217 127° Southeast 280 322 27,000  Level Houston Center
10:37AM 28.7461 -88.5536 129° Southeast 278 320 27,000  Level Houston Center
10:38AM 28.6886 -88.4694 128° Southeast 280 322 27,000  Level Houston Center
10:39AM 28.6397 -88.4011 129° Southeast 280 322 27,000  Level Houston Center
10:40AM 28.5919 -88.3319 128° Southeast 278 320 27,000  Level Houston Center
10:41AM 28.5439 -88.2642 129° Southeast 277 319 27,000  Level Houston Center
10:42AM 28.4958 -88.1950 128° Southeast 279 321 27,000  Level Houston Center
10:43AM 28.4478 -88.1264 129° Southeast 278 320 27,000  Level Houston Center
10:44AM 28.3928 -88.0469 128° Southeast 280 322 27,000  Level Houston Center
10:45AM 28.3628 -87.9622 112° Southeast 296 341 27,000  Level Houston Center
10:46AM 28.3347 -87.8758 110° East 293 337 27,000  Level Houston Center
10:47AM 28.3067 -87.7919 111° Southeast 288 331 27,000  Level Houston Center
10:48AM 28.2722 -87.6881 111° Southeast 294 338 27,000  Level Houston Center
10:49AM 28.2439 -87.6014 110° East 296 341 27,000  Level Houston Center
10:50AM 28.2164 -87.5175 110° East 288 331 27,000  Level Houston Center
10:51AM 28.1869 -87.4286 111° Southeast 299 344 27,000  Level Houston Center
10:52AM 28.1575 -87.3417 111° Southeast 298 343 27,000  Level Houston Center
10:53AM 28.1281 -87.2544 111° Southeast 298 343 27,000  Level Houston Center
10:55AM 28.0903 -87.1361 110° East 297 342 27,000  Level Jacksonville Center
10:56AM 28.0578 -87.0456 112° Southeast 296 341 27,000  Level Jacksonville Center
10:57AM 28.0294 -86.9575 110° East 296 341 27,000  Level Jacksonville Center
10:58AM 27.9989 -86.8692 111° Southeast 296 341 27,000  Level Jacksonville Center
10:59AM 27.9722 -86.7858 110° East 293 337 27,000  Level Jacksonville Center
11:00AM 27.9394 -86.6956 112° Southeast 298 343 27,000  Level Jacksonville Center
11:01AM 27.9147 -86.6147 109° East 296 341 27,000  Level Jacksonville Center
11:02AM 27.8856 -86.5339 112° Southeast 273 314 27,000  Level Jacksonville Center
11:03AM 27.8528 -86.4389 111° Southeast 287 330 27,000  Level Jacksonville Center
11:04AM 27.8219 -86.3486 111° Southeast 301 346 27,000  Level Jacksonville Center
11:05AM 27.7950 -86.2678 111° Southeast 296 341 27,000  Level Jacksonville Center
11:06AM 27.7636 -86.1847 113° Southeast 290 334 27,000  Level Jacksonville Center
11:07AM 27.7325 -86.0994 112° Southeast 294 338 27,000  Level Jacksonville Center
11:08AM 27.6817 -85.9428 110° East 300 345 27,000  Level Miami Center
11:09AM 27.6597 -85.8639 107° East 289 333 27,000  Level Miami Center
11:10AM 27.6236 -85.7744 114° Southeast 294 338 27,000  Level Miami Center
11:11AM 27.5894 -85.6853 113° Southeast 305 351 27,000  Level Miami Center
11:12AM 27.5608 -85.6106 113° Southeast 299 344 27,000  Level Miami Center
11:13AM 27.5331 -85.5172 109° East 299 344 27,000  Level Miami Center
11:14AM 27.4967 -85.4281 115° Southeast 299 344 27,000  Level Miami Center
11:15AM 27.4703 -85.3444 110° East 299 344 27,000  Level Miami Center
11:16AM 27.4358 -85.2578 114° Southeast 299 344 27,000  Level Miami Center
11:17AM 27.4097 -85.1719 109° East 299 344 27,000  Level Miami Center
11:18AM 27.3747 -85.0875 115° Southeast 299 344 27,000  Level Miami Center
11:19AM 27.3481 -85.0086 111° Southeast 294 338 27,000  Level Miami Center
11:20AM 27.3006 -84.9283 124° Southeast 294 338 27,000  Level Miami Center
11:21AM 27.2697 -84.8444 112° Southeast 294 338 27,000  Level Miami Center
11:22AM 27.2303 -84.7647 119° Southeast 294 338 27,000  Level Miami Center
11:23AM 27.1911 -84.6828 118° Southeast 295 339 27,000  Level Miami Center
11:24AM 27.1536 -84.6011 117° Southeast 295 339 27,000  Level Miami Center
11:25AM 27.1225 -84.5197 113° Southeast 295 339 27,000  Level Miami Center
11:26AM 27.0831 -84.4403 119° Southeast 295 339 27,000  Level Miami Center
11:27AM 27.0456 -84.3586 117° Southeast 295 339 27,000  Level Miami Center
11:28AM 27.0119 -84.2797 116° Southeast 295 339 27,000  Level Miami Center
11:29AM 26.9722 -84.2003 119° Southeast 295 339 27,000  Level Miami Center
11:30AM 26.9328 -84.1164 118° Southeast 295 339 27,000  Level Miami Center
11:31AM 26.8969 -84.0397 118° Southeast 295 339 27,000  Level Miami Center
11:32AM 26.8614 -83.9586 116° Southeast 295 339 27,000  Level Miami Center
11:33AM 26.8233 -83.8794 118° Southeast 295 339 27,000  Level Miami Center
11:34AM 26.7897 -83.8031 116° Southeast 295 339 27,000 -360 Level Miami Center
11:35AM 26.7517 -83.7219 118° Southeast 295 339 26,300 -1,020 Descending Miami Center
11:36AM 26.7100 -83.6311 117° Southeast 305 351 25,000 -1,260 Descending Miami Center
11:37AM 26.6683 -83.5450 118° Southeast 318 366 23,800 -1,200 Descending Miami Center
11:38AM 26.6261 -83.4592 119° Southeast 318 366 22,600 -1,380 Descending Miami Center
11:39AM 26.5806 -83.3614 118° Southeast 317 365 21,100 -1,320 Descending Miami Center
11:40AM 26.5444 -83.2831 117° Southeast 312 359 20,000 -1,200 Descending Miami Center
11:41AM 26.5064 -83.1997 117° Southeast 307 353 18,800 -1,200 Descending Miami Center
11:42AM 26.4642 -83.1164 119° Southeast 302 348 17,700 -1,200 Descending Miami Center
11:43AM 26.4258 -83.0331 117° Southeast 302 348 16,500 -1,200 Descending Miami Center
11:44AM 26.3856 -82.9500 118° Southeast 301 346 15,300 -1,200 Descending Miami Center
11:45AM 26.3492 -82.8694 117° Southeast 301 346 14,200 -1,200 Descending Miami Center
11:46AM 26.3108 -82.7908 119° Southeast 290 334 13,000 -1,200 Descending Miami Center
11:47AM 26.2744 -82.7106 117° Southeast 296 341 11,900 -1,140 Descending Miami Center
11:48AM 26.2358 -82.6297 118° Southeast 288 331 10,800 -1,140 Descending Miami Center
11:49AM 26.1989 -82.5586 120° Southeast 288 331 9,700 -1,080 Descending Miami Center
11:50AM 26.1622 -82.4806 118° Southeast 288 331 8,700 -1,080 Descending Miami Center
11:51AM 26.1278 -82.4025 116° Southeast 283 326 7,600 -840 Descending Miami Center
11:52AM 26.1350 -82.3197 84° East 262 302 6,900 -840 Descending Miami Center
11:53AM 26.1383 -82.2275 88° East 267 307 5,800 -1,080 Descending Miami Center
11:54AM 26.1267 -82.1458 99° East 272 313 4,800 -1,020 Descending Miami Center
11:56AM 26.1069 -82.0572 104° East 272 313 3,600 -1,140 Descending Miami Center
11:57AM 26.1039 -81.9644 92° East 258 297 2,400 -960 Descending Miami Center
11:58AM 26.1128 -81.8886 83° East 252 290 1,700 -720 Descending Miami Center
11:59AM 26.1275 -81.8269 75° East 232 267 1,000 -660 Descending Miami Center
12:00PM 26.1372 -81.7903 74° East 173 199 400 -600 Descending Miami Center
12:02PM 26.1500 -81.7667 79° East  Level FlightAware Approximate
12:09PM 26.1524 -81.7756 79° East  Level Estimated